Time;durP1;ratioP1;P1;durP2;ratioP2;P2;SDS_P1;SDS_P2;PMS_P1;PMS_P2;Temp;Humidity;BMP_temperature;BMP_pressure;BME280_temperature;BME280_humidity;BME280_pressure;Samples;Min_cycle;Max_cycle;Signal;HPM_P1;HPM_P2
2022/05/09 00:02:15;;;;;;;15.30;4.47;;;;;;;;;;5048819;28;20039;-88
2022/05/09 00:04:41;;;;;;;14.55;4.13;;;;;;;;;;5082113;28;20036;-87
2022/05/09 00:07:07;;;;;;;13.98;3.80;;;;;;;;;;5079619;28;20494;-87
2022/05/09 00:09:34;;;;;;;16.92;4.68;;;;;;;;;;5080888;28;20040;-88
2022/05/09 00:12:00;;;;;;;19.42;4.57;;;;;;;;;;5062115;28;20044;-87
2022/05/09 00:14:26;;;;;;;17.77;4.93;;;;;;;;;;5066128;28;20480;-87
2022/05/09 00:16:53;;;;;;;13.68;4.13;;;;;;;;;;5074632;28;20045;-87
2022/05/09 00:19:20;;;;;;;14.48;4.05;;;;;;;;;;5082279;28;20638;-88
2022/05/09 00:21:47;;;;;;;16.23;4.82;;;;;;;;;;5074706;28;20097;-88
2022/05/09 00:24:15;;;;;;;18.98;4.70;;;;;;;;;;5077286;28;20092;-87
2022/05/09 00:26:48;;;;;;;14.00;4.00;;;;;;;;;;5066321;28;20368;-87
2022/05/09 00:29:15;;;;;;;17.08;4.13;;;;;;;;;;5080784;28;20043;-87
2022/05/09 00:31:46;;;;;;;12.57;3.63;;;;;;;;;;5059850;28;20051;-87
2022/05/09 00:34:12;;;;;;;15.85;4.28;;;;;;;;;;5077446;28;20097;-88
2022/05/09 00:36:39;;;;;;;14.55;3.70;;;;;;;;;;5077623;28;20112;-88
2022/05/09 00:39:05;;;;;;;13.73;4.50;;;;;;;;;;5074897;28;20051;-88
2022/05/09 00:41:34;;;;;;;9.80;4.03;;;;;;;;;;5082390;28;20509;-88
2022/05/09 00:44:01;;;;;;;11.35;3.38;;;;;;;;;;5072736;28;20123;-88
2022/05/09 00:46:30;;;;;;;9.30;3.40;;;;;;;;;;5080352;28;20072;-88
2022/05/09 00:49:09;;;;;;;10.43;3.47;;;;;;;;;;5056062;28;20137;-88
2022/05/09 00:51:36;;;;;;;16.48;3.97;;;;;;;;;;5078513;28;20519;-87
2022/05/09 00:54:02;;;;;;;16.38;4.13;;;;;;;;;;5081925;28;20037;-88
2022/05/09 00:56:35;;;;;;;14.63;4.68;;;;;;;;;;5077058;28;20040;-88
2022/05/09 00:59:03;;;;;;;14.27;4.75;;;;;;;;;;5074816;28;20060;-88
2022/05/09 01:01:29;;;;;;;16.23;4.72;;;;;;;;;;5077102;28;20036;-88
2022/05/09 01:04:05;;;;;;;19.58;4.70;;;;;;;;;;5077667;28;20051;-88
2022/05/09 01:06:32;;;;;;;17.50;4.40;;;;;;;;;;5076759;28;20043;-89
2022/05/09 01:08:58;;;;;;;14.52;4.47;;;;;;;;;;5091866;28;20592;-89
2022/05/09 01:11:26;;;;;;;13.02;4.75;;;;;;;;;;5059579;28;20395;-89
2022/05/09 01:13:57;;;;;;;18.52;5.25;;;;;;;;;;5083984;28;20039;-89
2022/05/09 01:16:23;;;;;;;11.15;4.45;;;;;;;;;;5052938;28;20044;-89
2022/05/09 01:18:49;;;;;;;19.55;4.72;;;;;;;;;;5083048;28;20543;-89
2022/05/09 01:21:36;;;;;;;14.48;4.03;;;;;;;;;;5075973;28;20048;-89
2022/05/09 01:24:04;;;;;;;17.35;5.20;;;;;;;;;;5078346;28;20036;-89
2022/05/09 01:26:30;;;;;;;13.32;4.65;;;;;;;;;;5072845;28;20040;-89
2022/05/09 01:28:57;;;;;;;12.48;4.53;;;;;;;;;;5081527;28;20044;-89
2022/05/09 01:31:25;;;;;;;13.13;5.03;;;;;;;;;;5084513;28;20047;-88
2022/05/09 01:33:52;;;;;;;13.48;5.20;;;;;;;;;;5075555;28;20452;-88
2022/05/09 01:36:31;;;;;;;17.25;5.20;;;;;;;;;;5080271;28;20075;-89
2022/05/09 01:38:59;;;;;;;17.20;4.70;;;;;;;;;;5078006;28;20040;-89
2022/05/09 01:41:27;;;;;;;15.95;4.90;;;;;;;;;;5079949;28;20040;-89
2022/05/09 01:43:55;;;;;;;17.27;4.97;;;;;;;;;;5084821;28;20082;-89
2022/05/09 01:46:26;;;;;;;21.55;5.22;;;;;;;;;;5082307;28;20040;-89
2022/05/09 01:51:38;;;;;;;16.58;5.43;;;;;;;;;;5089500;28;20535;-89
2022/05/09 01:54:04;;;;;;;12.80;4.70;;;;;;;;;;5060847;28;20059;-88
2022/05/09 01:56:32;;;;;;;16.05;5.13;;;;;;;;;;5077882;28;20499;-89
2022/05/09 01:58:58;;;;;;;13.80;5.22;;;;;;;;;;5061427;28;20036;-88
2022/05/09 02:01:43;;;;;;;15.30;4.50;;;;;;;;;;5072378;28;20049;-88
2022/05/09 02:04:11;;;;;;;14.98;5.32;;;;;;;;;;5080724;28;20107;-89
2022/05/09 02:06:37;;;;;;;17.40;4.65;;;;;;;;;;5079482;28;20040;-88
2022/05/09 02:09:03;;;;;;;16.50;4.85;;;;;;;;;;5062943;28;20036;-88
2022/05/09 02:11:30;;;;;;;17.80;5.10;;;;;;;;;;5068888;28;20032;-88
2022/05/09 02:13:56;;;;;;;14.82;5.10;;;;;;;;;;5059504;28;20044;-88
2022/05/09 02:16:22;;;;;;;15.85;5.65;;;;;;;;;;5074172;28;20045;-88
2022/05/09 02:18:48;;;;;;;18.75;5.70;;;;;;;;;;5079816;28;20112;-87
2022/05/09 02:21:14;;;;;;;16.65;4.43;;;;;;;;;;5074847;28;20040;-88
2022/05/09 02:23:42;;;;;;;16.42;5.05;;;;;;;;;;5062164;28;20079;-83
2022/05/09 02:26:08;;;;;;;13.63;4.80;;;;;;;;;;5069083;28;20116;-84
2022/05/09 02:28:34;;;;;;;17.88;5.15;;;;;;;;;;5086304;28;20040;-84
2022/05/09 02:31:01;;;;;;;17.25;4.68;;;;;;;;;;5055590;28;20148;-83
2022/05/09 02:33:27;;;;;;;17.83;5.28;;;;;;;;;;5080902;28;20043;-84
2022/05/09 02:35:53;;;;;;;15.50;4.60;;;;;;;;;;5085466;28;20040;-84
2022/05/09 02:38:19;;;;;;;13.43;4.32;;;;;;;;;;5090365;28;20439;-84
2022/05/09 02:40:46;;;;;;;12.07;4.28;;;;;;;;;;5068323;28;20037;-84
2022/05/09 02:43:12;;;;;;;12.23;4.47;;;;;;;;;;5084597;28;20134;-83
2022/05/09 02:45:41;;;;;;;13.38;4.68;;;;;;;;;;5100800;28;20032;-84
2022/05/09 02:48:07;;;;;;;14.07;5.13;;;;;;;;;;5070573;28;20051;-83
2022/05/09 02:50:33;;;;;;;16.15;4.72;;;;;;;;;;5082892;28;20508;-83
2022/05/09 02:52:59;;;;;;;12.52;4.68;;;;;;;;;;5064606;28;20044;-83
2022/05/09 02:55:25;;;;;;;16.35;4.38;;;;;;;;;;5069223;28;20503;-83
2022/05/09 02:57:52;;;;;;;15.77;3.92;;;;;;;;;;5043609;28;20036;-83
2022/05/09 03:00:22;;;;;;;8.98;3.85;;;;;;;;;;5054145;28;20385;-83
2022/05/09 03:05:35;;;;;;;12.77;4.00;;;;;;;;;;5084105;28;20585;-88
2022/05/09 03:08:01;;;;;;;13.50;5.15;;;;;;;;;;5081852;28;20039;-83
2022/05/09 03:10:28;;;;;;;11.27;3.53;;;;;;;;;;5073472;28;20373;-83
2022/05/09 03:13:02;;;;;;;14.85;4.72;;;;;;;;;;5081118;28;20372;-89
2022/05/09 03:15:29;;;;;;;15.18;4.40;;;;;;;;;;5083162;28;20039;-88
2022/05/09 03:17:55;;;;;;;14.80;4.10;;;;;;;;;;5080230;28;20501;-89
2022/05/09 03:20:22;;;;;;;14.23;4.88;;;;;;;;;;5089209;28;20099;-88
2022/05/09 03:22:48;;;;;;;16.75;4.88;;;;;;;;;;5081303;28;20037;-88
2022/05/09 03:25:15;;;;;;;17.38;5.07;;;;;;;;;;5077079;28;20101;-88
2022/05/09 03:27:41;;;;;;;15.15;4.60;;;;;;;;;;5085652;28;20063;-89
2022/05/09 03:30:08;;;;;;;15.23;5.53;;;;;;;;;;5076053;28;20461;-88
2022/05/09 03:32:35;;;;;;;16.95;5.10;;;;;;;;;;5075937;28;20484;-87
2022/05/09 03:35:02;;;;;;;15.55;5.38;;;;;;;;;;5077557;28;20044;-89
2022/05/09 03:37:30;;;;;;;14.20;4.85;;;;;;;;;;5077807;28;20032;-89
2022/05/09 03:39:56;;;;;;;12.00;4.25;;;;;;;;;;5085386;28;20040;-88
2022/05/09 03:42:22;;;;;;;20.35;5.70;;;;;;;;;;5083819;28;20051;-88
2022/05/09 03:44:48;;;;;;;16.00;5.40;;;;;;;;;;5075393;28;20127;-89
2022/05/09 03:47:14;;;;;;;16.52;5.07;;;;;;;;;;5080605;28;20036;-88
2022/05/09 03:49:42;;;;;;;14.02;5.10;;;;;;;;;;5072531;28;20097;-89
2022/05/09 03:52:09;;;;;;;14.63;4.40;;;;;;;;;;5075374;28;20381;-89
2022/05/09 03:54:35;;;;;;;21.17;5.80;;;;;;;;;;5078615;28;20324;-83
2022/05/09 03:57:02;;;;;;;15.82;5.38;;;;;;;;;;5089206;28;20093;-83
2022/05/09 03:59:28;;;;;;;11.23;5.63;;;;;;;;;;5090073;28;20036;-83
2022/05/09 04:01:56;;;;;;;18.90;5.05;;;;;;;;;;5076054;28;20467;-83
2022/05/09 04:04:22;;;;;;;17.42;5.35;;;;;;;;;;5069267;28;20048;-83
2022/05/09 04:06:51;;;;;;;17.98;5.40;;;;;;;;;;5075288;28;20058;-83
2022/05/09 04:09:17;;;;;;;17.55;5.30;;;;;;;;;;5082115;28;20036;-83
2022/05/09 04:11:45;;;;;;;14.02;5.50;;;;;;;;;;5084698;28;20062;-83
2022/05/09 04:14:12;;;;;;;21.58;5.97;;;;;;;;;;5089138;28;20127;-82
2022/05/09 04:16:50;;;;;;;18.55;5.50;;;;;;;;;;5071620;28;20051;-83
2022/05/09 04:19:16;;;;;;;19.88;6.07;;;;;;;;;;5071420;28;20119;-83
2022/05/09 04:21:43;;;;;;;17.80;6.03;;;;;;;;;;5084982;28;20079;-83
2022/05/09 04:24:09;;;;;;;18.52;5.60;;;;;;;;;;5052111;28;20162;-83
2022/05/09 04:26:35;;;;;;;14.18;5.55;;;;;;;;;;5072313;28;20472;-83
2022/05/09 04:29:01;;;;;;;15.05;5.43;;;;;;;;;;5076799;28;20079;-83
2022/05/09 04:31:28;;;;;;;15.90;5.45;;;;;;;;;;5077505;28;20040;-83
2022/05/09 04:33:55;;;;;;;13.93;4.40;;;;;;;;;;5080296;28;20056;-83
2022/05/09 04:36:25;;;;;;;20.17;4.90;;;;;;;;;;5068954;28;20044;-83
2022/05/09 04:38:52;;;;;;;16.30;4.78;;;;;;;;;;5086626;28;20452;-83
2022/05/09 04:41:19;;;;;;;12.95;4.80;;;;;;;;;;5069250;28;20128;-83
2022/05/09 04:43:46;;;;;;;10.57;4.05;;;;;;;;;;5067759;28;20036;-83
2022/05/09 04:46:15;;;;;;;15.30;5.18;;;;;;;;;;5050667;28;20123;-83
2022/05/09 04:48:43;;;;;;;11.95;4.25;;;;;;;;;;5057582;28;20442;-84
2022/05/09 04:51:10;;;;;;;14.13;4.97;;;;;;;;;;5075917;28;20136;-84
2022/05/09 04:53:36;;;;;;;10.40;4.25;;;;;;;;;;5066745;28;20044;-85
2022/05/09 04:56:03;;;;;;;12.95;4.55;;;;;;;;;;5054295;28;20043;-85
2022/05/09 04:58:29;;;;;;;11.23;4.38;;;;;;;;;;5074963;28;20044;-84
2022/05/09 05:00:55;;;;;;;19.90;4.60;;;;;;;;;;5089511;28;20123;-84
2022/05/09 05:03:21;;;;;;;14.15;4.15;;;;;;;;;;5056519;28;20040;-84
2022/05/09 05:05:47;;;;;;;107.20;7.88;;;;;;;;;;5075754;28;20499;-85
2022/05/09 05:08:14;;;;;;;13.13;4.28;;;;;;;;;;5066530;28;20040;-85
2022/05/09 05:10:41;;;;;;;116.43;7.45;;;;;;;;;;5067005;28;20434;-85
2022/05/09 05:13:07;;;;;;;15.77;3.90;;;;;;;;;;5080805;28;20041;-85
2022/05/09 05:15:33;;;;;;;16.83;4.60;;;;;;;;;;5078089;28;20040;-85
2022/05/09 05:18:00;;;;;;;12.95;4.28;;;;;;;;;;5087726;28;20050;-85
2022/05/09 05:20:26;;;;;;;14.07;4.28;;;;;;;;;;5081805;28;20118;-85
2022/05/09 05:22:52;;;;;;;15.52;4.20;;;;;;;;;;5071173;28;20037;-85
2022/05/09 05:25:20;;;;;;;12.10;3.95;;;;;;;;;;5077017;28;20177;-85
2022/05/09 05:27:49;;;;;;;10.05;3.60;;;;;;;;;;5074588;28;20068;-85
2022/05/09 05:30:16;;;;;;;12.63;3.92;;;;;;;;;;5085415;28;20113;-90
2022/05/09 05:32:43;;;;;;;17.00;4.32;;;;;;;;;;5085798;28;20035;-90
2022/05/09 05:35:10;;;;;;;16.10;4.43;;;;;;;;;;5071806;28;20079;-90
2022/05/09 05:37:37;;;;;;;16.02;4.20;;;;;;;;;;5079387;28;20040;-90
2022/05/09 05:40:13;;;;;;;15.00;4.45;;;;;;;;;;5066705;28;20055;-89
2022/05/09 05:42:39;;;;;;;;;;;;;;;;;;5084402;28;20080;-89
2022/05/09 05:45:08;;;;;;;14.52;4.40;;;;;;;;;;5080160;28;19930;-87
2022/05/09 05:47:41;;;;;;;13.50;4.55;;;;;;;;;;5076362;28;20043;-84
2022/05/09 05:50:08;;;;;;;12.95;4.13;;;;;;;;;;5074473;28;20492;-87
2022/05/09 05:52:42;;;;;;;15.32;3.88;;;;;;;;;;5075539;28;20384;-87
2022/05/09 05:55:09;;;;;;;13.20;4.32;;;;;;;;;;5064421;28;20042;-89
2022/05/09 05:57:38;;;;;;;16.27;3.88;;;;;;;;;;5072425;28;20045;-89
2022/05/09 06:00:21;;;;;;;50.33;6.30;;;;;;;;;;5076836;28;20111;-89
2022/05/09 06:02:53;;;;;;;14.05;4.40;;;;;;;;;;5058767;28;20391;-87
2022/05/09 06:05:20;;;;;;;12.45;3.92;;;;;;;;;;5071276;28;20097;-88
2022/05/09 06:07:47;;;;;;;17.23;3.97;;;;;;;;;;5082991;28;20400;-89
2022/05/09 06:10:15;;;;;;;12.93;3.95;;;;;;;;;;5081815;28;20428;-87
2022/05/09 06:12:41;;;;;;;15.40;3.75;;;;;;;;;;5085071;28;20111;-88
2022/05/09 06:17:54;;;;;;;12.50;4.18;;;;;;;;;;5082367;28;20044;-88
2022/05/09 06:20:20;;;;;;;11.68;4.10;;;;;;;;;;5060478;28;20081;-87
2022/05/09 06:22:46;;;;;;;9.88;3.80;;;;;;;;;;5081603;28;20060;-87
2022/05/09 06:25:14;;;;;;;18.55;4.20;;;;;;;;;;5077130;28;20115;-87
2022/05/09 06:27:41;;;;;;;12.07;3.97;;;;;;;;;;5082456;28;20043;-87
2022/05/09 06:30:08;;;;;;;15.98;4.03;;;;;;;;;;5085197;28;20036;-86
2022/05/09 06:32:34;;;;;;;13.48;3.92;;;;;;;;;;5080556;28;20379;-87
2022/05/09 06:35:01;;;;;;;22.98;4.40;;;;;;;;;;5068212;28;20040;-87
2022/05/09 06:37:29;;;;;;;11.77;3.80;;;;;;;;;;5065053;28;20090;-86
2022/05/09 06:39:55;;;;;;;46.30;6.32;;;;;;;;;;5086710;28;20048;-86
2022/05/09 06:42:21;;;;;;;15.68;4.38;;;;;;;;;;5064646;28;20040;-86
2022/05/09 06:44:47;;;;;;;14.20;3.92;;;;;;;;;;5072672;28;20450;-86
2022/05/09 06:47:13;;;;;;;66.55;6.65;;;;;;;;;;5079224;28;20064;-86
2022/05/09 06:49:39;;;;;;;25.88;4.57;;;;;;;;;;5082044;28;20093;-86
2022/05/09 06:52:06;;;;;;;100.43;7.97;;;;;;;;;;5089499;28;20093;-86
2022/05/09 06:54:32;;;;;;;43.97;5.05;;;;;;;;;;5079042;28;20039;-86
2022/05/09 06:56:58;;;;;;;13.85;4.45;;;;;;;;;;5077390;28;20396;-85
2022/05/09 06:59:24;;;;;;;14.35;4.10;;;;;;;;;;5037468;28;20079;-86
2022/05/09 07:01:50;;;;;;;13.02;4.10;;;;;;;;;;5055338;28;20052;-84
2022/05/09 07:04:17;;;;;;;11.43;3.47;;;;;;;;;;5079813;28;20414;-86
2022/05/09 07:06:43;;;;;;;12.38;3.97;;;;;;;;;;5063988;28;20556;-86
2022/05/09 07:09:15;;;;;;;15.40;4.20;;;;;;;;;;5080390;28;20392;-86
2022/05/09 07:11:41;;;;;;;14.38;4.05;;;;;;;;;;5077639;28;20086;-86
2022/05/09 07:14:07;;;;;;;11.32;3.70;;;;;;;;;;5084013;28;20073;-85
2022/05/09 07:16:33;;;;;;;11.25;3.72;;;;;;;;;;5076433;28;20085;-86
2022/05/09 07:19:00;;;;;;;18.63;3.88;;;;;;;;;;5085150;28;20028;-86
2022/05/09 07:21:26;;;;;;;252.82;15.18;;;;;;;;;;5070365;28;20388;-86
2022/05/09 07:23:52;;;;;;;21.38;4.45;;;;;;;;;;5057305;28;20040;-85
2022/05/09 07:26:19;;;;;;;29.65;4.85;;;;;;;;;;5078131;28;20068;-82
2022/05/09 07:28:45;;;;;;;13.38;4.05;;;;;;;;;;5055447;28;20072;-83
2022/05/09 07:31:11;;;;;;;13.65;4.63;;;;;;;;;;5057476;28;20036;-84
2022/05/09 07:33:37;;;;;;;14.27;3.90;;;;;;;;;;5068979;28;20044;-85
2022/05/09 07:36:04;;;;;;;33.28;5.00;;;;;;;;;;5069758;28;20052;-84
2022/05/09 07:38:30;;;;;;;12.35;3.75;;;;;;;;;;5091200;28;20442;-84
2022/05/09 07:40:57;;;;;;;11.68;3.65;;;;;;;;;;5072018;28;20045;-84
2022/05/09 07:43:24;;;;;;;10.15;3.58;;;;;;;;;;5062808;28;20120;-84
2022/05/09 07:45:51;;;;;;;11.75;3.78;;;;;;;;;;5069753;28;20044;-84
2022/05/09 07:48:21;;;;;;;10.93;3.22;;;;;;;;;;5074595;28;20045;-84
2022/05/09 07:50:48;;;;;;;31.20;4.75;;;;;;;;;;5076937;28;20048;-84
2022/05/09 07:53:16;;;;;;;13.05;3.85;;;;;;;;;;5078172;28;20040;-84
2022/05/09 07:55:42;;;;;;;11.98;3.42;;;;;;;;;;5077523;28;20061;-84
2022/05/09 07:58:09;;;;;;;11.57;3.05;;;;;;;;;;5054671;28;20041;-84
2022/05/09 08:00:39;;;;;;;12.88;3.55;;;;;;;;;;5084664;28;20131;-84
2022/05/09 08:03:06;;;;;;;11.23;3.20;;;;;;;;;;5061892;28;20373;-84
2022/05/09 08:05:33;;;;;;;51.58;5.43;;;;;;;;;;5054565;28;20040;-84
2022/05/09 08:07:59;;;;;;;14.32;3.30;;;;;;;;;;5055612;28;20048;-84
2022/05/09 08:10:25;;;;;;;9.20;3.13;;;;;;;;;;5073605;28;20044;-84
2022/05/09 08:12:52;;;;;;;10.32;3.17;;;;;;;;;;5069265;28;20492;-84
2022/05/09 08:15:20;;;;;;;10.82;2.92;;;;;;;;;;5062516;28;20041;-84
2022/05/09 08:17:49;;;;;;;8.82;2.75;;;;;;;;;;5054677;28;20044;-83
2022/05/09 08:20:15;;;;;;;11.55;3.10;;;;;;;;;;5069974;28;20088;-84
2022/05/09 08:22:42;;;;;;;14.15;3.03;;;;;;;;;;5069969;28;20040;-83
2022/05/09 08:25:08;;;;;;;7.13;2.97;;;;;;;;;;5079949;28;20102;-84
2022/05/09 08:27:36;;;;;;;8.20;2.80;;;;;;;;;;5078678;28;20033;-84
2022/05/09 08:30:03;;;;;;;16.63;3.42;;;;;;;;;;5068320;28;20126;-83
2022/05/09 08:32:30;;;;;;;9.07;2.85;;;;;;;;;;5069600;28;20133;-83
2022/05/09 08:34:56;;;;;;;9.70;3.10;;;;;;;;;;5059107;28;20152;-83
2022/05/09 08:37:24;;;;;;;9.45;2.90;;;;;;;;;;5068183;28;20032;-83
2022/05/09 08:39:50;;;;;;;8.38;2.75;;;;;;;;;;5078451;28;20043;-83
2022/05/09 08:42:21;;;;;;;8.27;3.05;;;;;;;;;;5077933;28;20500;-83
2022/05/09 08:45:05;;;;;;;8.23;2.40;;;;;;;;;;5074448;28;20098;-83
2022/05/09 08:47:34;;;;;;;7.17;2.50;;;;;;;;;;5073782;28;20093;-83
2022/05/09 08:50:00;;;;;;;10.75;2.85;;;;;;;;;;5078250;28;20330;-83
2022/05/09 08:52:31;;;;;;;15.05;2.95;;;;;;;;;;5078870;28;20405;-83
2022/05/09 08:54:57;;;;;;;15.30;3.03;;;;;;;;;;5051410;28;20048;-82
2022/05/09 08:57:25;;;;;;;11.93;2.90;;;;;;;;;;5050276;28;20041;-82
2022/05/09 08:59:55;;;;;;;10.85;2.63;;;;;;;;;;5067453;28;20048;-82
2022/05/09 09:02:21;;;;;;;8.35;2.50;;;;;;;;;;5055193;28;20036;-82
2022/05/09 09:04:53;;;;;;;8.35;2.50;;;;;;;;;;5080630;28;20147;-82
2022/05/09 09:07:32;;;;;;;8.98;2.20;;;;;;;;;;5081537;28;20303;-82
2022/05/09 09:10:08;;;;;;;7.72;2.60;;;;;;;;;;5053863;28;20098;-84
2022/05/09 09:12:47;;;;;;;11.60;2.95;;;;;;;;;;5070713;28;20089;-84
2022/05/09 09:15:36;;;;;;;9.60;2.80;;;;;;;;;;5070585;28;20436;-83
2022/05/09 09:18:21;;;;;;;9.73;2.22;;;;;;;;;;5070081;28;20090;-83
2022/05/09 09:20:56;;;;;;;9.73;2.35;;;;;;;;;;5081349;28;20032;-82
2022/05/09 09:23:28;;;;;;;9.93;2.72;;;;;;;;;;5064682;28;20036;-82
2022/05/09 09:26:13;;;;;;;7.68;2.75;;;;;;;;;;5072346;28;20093;-82
2022/05/09 09:28:46;;;;;;;7.63;2.63;;;;;;;;;;5078810;28;20102;-82
2022/05/09 09:31:13;;;;;;;9.23;2.65;;;;;;;;;;5068571;28;20047;-82
2022/05/09 09:33:43;;;;;;;12.50;2.63;;;;;;;;;;5070163;28;20128;-82
2022/05/09 09:36:12;;;;;;;8.50;2.90;;;;;;;;;;5065957;28;20409;-82
2022/05/09 09:38:40;;;;;;;9.77;2.33;;;;;;;;;;5071842;28;20074;-82
2022/05/09 09:41:25;;;;;;;8.75;2.60;;;;;;;;;;5057115;28;20044;-82
2022/05/09 09:43:57;;;;;;;10.23;2.28;;;;;;;;;;5059537;28;20494;-83
2022/05/09 09:46:24;;;;;;;8.23;2.40;;;;;;;;;;5073175;28;20048;-82
2022/05/09 09:49:04;;;;;;;8.25;2.30;;;;;;;;;;5074477;28;20048;-83
2022/05/09 09:51:30;;;;;;;11.15;2.95;;;;;;;;;;5077387;28;20127;-82
2022/05/09 09:54:01;;;;;;;6.90;2.10;;;;;;;;;;5051729;28;21099;-82
2022/05/09 09:56:31;;;;;;;11.65;2.65;;;;;;;;;;5082440;28;20373;-82
2022/05/09 09:58:59;;;;;;;8.00;2.28;;;;;;;;;;5067295;28;20045;-83
2022/05/09 10:01:25;;;;;;;10.60;2.70;;;;;;;;;;5080180;28;20386;-83
2022/05/09 10:04:10;;;;;;;7.35;2.10;;;;;;;;;;5072701;28;20358;-83
2022/05/09 10:06:55;;;;;;;7.10;2.58;;;;;;;;;;5077841;28;20090;-83
2022/05/09 10:09:21;;;;;;;12.55;2.30;;;;;;;;;;5074978;28;20032;-83
2022/05/09 10:11:48;;;;;;;6.22;2.30;;;;;;;;;;5070345;28;20036;-83
2022/05/09 10:14:31;;;;;;;9.65;2.20;;;;;;;;;;5055384;28;20040;-82
2022/05/09 10:17:12;;;;;;;8.88;2.40;;;;;;;;;;5079209;28;20052;-83
2022/05/09 10:19:38;;;;;;;9.45;2.50;;;;;;;;;;5091581;28;20380;-83
2022/05/09 10:24:57;;;;;;;5.55;2.35;;;;;;;;;;5074671;28;20036;-83
2022/05/09 10:27:23;;;;;;;7.85;2.20;;;;;;;;;;5072557;28;20047;-83
2022/05/09 10:29:51;;;;;;;10.23;2.50;;;;;;;;;;5080384;28;20392;-83
2022/05/09 10:32:23;;;;;;;7.60;2.42;;;;;;;;;;5066112;28;20124;-83
2022/05/09 10:34:49;;;;;;;7.82;2.42;;;;;;;;;;5079155;28;20036;-83
2022/05/09 10:37:25;;;;;;;12.23;2.70;;;;;;;;;;5066296;28;20070;-84
2022/05/09 10:39:58;;;;;;;6.88;2.53;;;;;;;;;;5069398;28;20036;-84
2022/05/09 10:42:37;;;;;;;8.55;2.45;;;;;;;;;;5052658;28;20631;-84
2022/05/09 10:45:06;;;;;;;7.85;2.30;;;;;;;;;;5078319;28;20539;-84
2022/05/09 10:47:38;;;;;;;11.75;2.72;;;;;;;;;;5083562;28;20028;-83
2022/05/09 10:50:24;;;;;;;7.63;2.67;;;;;;;;;;5057012;28;20080;-83
2022/05/09 10:52:50;;;;;;;;;;;;;;;;;;5057729;28;20040;-85
2022/05/09 10:55:22;;;;;;;9.93;2.30;;;;;;;;;;5076754;28;19923;-84
2022/05/09 10:58:21;;;;;;;5.43;1.42;;;;;;;;;;5080244;28;20116;-84
2022/05/09 11:00:50;;;;;;;5.97;1.70;;;;;;;;;;5060866;28;20459;-83
2022/05/09 11:03:25;;;;;;;6.68;2.20;;;;;;;;;;5067900;28;20039;-83
2022/05/09 11:06:10;;;;;;;7.95;2.13;;;;;;;;;;5079934;28;20114;-83
2022/05/09 11:08:53;;;;;;;7.47;2.10;;;;;;;;;;5076121;28;20047;-80
2022/05/09 11:11:25;;;;;;;6.78;1.90;;;;;;;;;;5064234;28;20032;-82
2022/05/09 11:13:58;;;;;;;7.97;2.65;;;;;;;;;;5085006;28;20052;-80
2022/05/09 11:16:29;;;;;;;8.65;2.38;;;;;;;;;;5081291;28;20068;-81
2022/05/09 11:18:59;;;;;;;7.68;1.88;;;;;;;;;;5063149;28;21051;-80
2022/05/09 11:21:48;;;;;;;9.10;2.15;;;;;;;;;;5078335;28;20036;-80
2022/05/09 11:24:17;;;;;;;6.38;1.98;;;;;;;;;;5065285;28;20098;-82
2022/05/09 11:27:04;;;;;;;6.40;1.70;;;;;;;;;;5079412;28;20400;-80
2022/05/09 11:29:49;;;;;;;8.15;1.85;;;;;;;;;;5075114;28;20122;-81
2022/05/09 11:32:30;;;;;;;5.47;1.92;;;;;;;;;;5050797;28;20036;-80
2022/05/09 11:35:08;;;;;;;10.52;2.97;;;;;;;;;;5071318;28;20462;-80
2022/05/09 11:37:54;;;;;;;8.52;2.20;;;;;;;;;;5070654;28;20052;-80
2022/05/09 11:40:27;;;;;;;7.00;1.98;;;;;;;;;;5067420;28;20056;-80
2022/05/09 11:45:50;;;;;;;7.45;2.05;;;;;;;;;;5072835;28;20032;-81
2022/05/09 11:48:19;;;;;;;10.63;2.22;;;;;;;;;;5087860;28;20036;-81
2022/05/09 11:50:52;;;;;;;6.28;2.00;;;;;;;;;;5070250;28;20051;-81
2022/05/09 11:53:20;;;;;;;7.97;2.10;;;;;;;;;;5076439;28;20104;-82
2022/05/09 11:55:48;;;;;;;7.05;2.03;;;;;;;;;;5073188;28;20049;-81
2022/05/09 11:58:16;;;;;;;6.32;2.00;;;;;;;;;;5089072;28;20044;-81
2022/05/09 12:00:44;;;;;;;10.25;2.30;;;;;;;;;;5084492;28;20054;-81
2022/05/09 12:03:11;;;;;;;8.45;2.55;;;;;;;;;;5088451;28;20120;-83
2022/05/09 12:05:38;;;;;;;6.97;2.30;;;;;;;;;;5067603;28;20037;-83
2022/05/09 12:08:13;;;;;;;7.85;2.30;;;;;;;;;;5053307;28;20086;-83
2022/05/09 12:10:39;;;;;;;;;;;;;;;;;;5067541;28;20093;-82
2022/05/09 12:13:06;;;;;;;9.27;2.30;;;;;;;;;;5073588;28;20371;-83
2022/05/09 12:15:33;;;;;;;6.78;1.88;;;;;;;;;;5061612;28;20575;-82
2022/05/09 12:18:00;;;;;;;8.63;1.90;;;;;;;;;;5071406;28;20492;-82
2022/05/09 12:20:27;;;;;;;8.10;2.38;;;;;;;;;;5057404;28;20523;-82
2022/05/09 12:23:03;;;;;;;4.95;2.15;;;;;;;;;;5059721;28;20480;-83
2022/05/09 12:25:41;;;;;;;6.85;2.20;;;;;;;;;;5072937;28;20036;-82
2022/05/09 12:28:08;;;;;;;7.78;2.17;;;;;;;;;;5083250;28;20040;-82
2022/05/09 12:30:52;;;;;;;5.00;1.95;;;;;;;;;;5079168;28;20144;-83
2022/05/09 12:33:21;;;;;;;8.97;2.20;;;;;;;;;;5070699;28;20040;-83
2022/05/09 12:35:49;;;;;;;8.55;2.00;;;;;;;;;;5073959;28;20054;-82
2022/05/09 12:38:21;;;;;;;5.30;2.00;;;;;;;;;;5087343;28;20450;-84
2022/05/09 12:40:47;;;;;;;5.80;1.90;;;;;;;;;;5087090;28;20435;-83
2022/05/09 12:43:13;;;;;;;6.80;2.10;;;;;;;;;;5071582;28;20086;-83
2022/05/09 12:45:40;;;;;;;5.45;2.20;;;;;;;;;;5064754;28;20051;-83
2022/05/09 12:48:09;;;;;;;8.40;2.00;;;;;;;;;;5082500;28;20390;-83
2022/05/09 12:50:39;;;;;;;7.47;1.77;;;;;;;;;;5072898;28;20052;-83
2022/05/09 12:53:08;;;;;;;5.70;2.08;;;;;;;;;;5083935;28;21326;-85
2022/05/09 12:55:56;;;;;;;6.82;2.10;;;;;;;;;;5078488;28;20119;-83
2022/05/09 12:58:23;;;;;;;8.18;2.20;;;;;;;;;;5068819;28;20118;-83
2022/05/09 13:00:49;;;;;;;5.78;1.83;;;;;;;;;;5053285;28;20040;-83
2022/05/09 13:03:16;;;;;;;6.60;1.90;;;;;;;;;;5070880;28;20047;-83
2022/05/09 13:05:43;;;;;;;6.05;1.83;;;;;;;;;;5073251;28;20040;-85
2022/05/09 13:08:10;;;;;;;6.88;1.83;;;;;;;;;;5087986;28;20727;-83
2022/05/09 13:10:53;;;;;;;5.35;1.80;;;;;;;;;;5076303;28;20051;-83
2022/05/09 13:13:28;;;;;;;9.25;2.15;;;;;;;;;;5082862;28;20044;-83
2022/05/09 13:15:55;;;;;;;6.30;2.03;;;;;;;;;;5062272;28;20126;-83
2022/05/09 13:18:22;;;;;;;7.75;2.22;;;;;;;;;;5087714;28;20776;-84
2022/05/09 13:20:51;;;;;;;4.80;2.20;;;;;;;;;;5077510;28;20066;-86
2022/05/09 13:23:24;;;;;;;7.78;2.05;;;;;;;;;;5065605;28;20047;-83
2022/05/09 13:25:51;;;;;;;7.72;2.08;;;;;;;;;;5057250;28;20067;-83
2022/05/09 13:28:22;;;;;;;8.82;1.70;;;;;;;;;;5074111;28;20078;-83
2022/05/09 13:30:54;;;;;;;6.85;2.08;;;;;;;;;;5088015;28;20067;-82
2022/05/09 13:33:25;;;;;;;6.82;1.77;;;;;;;;;;5079812;28;20402;-83
2022/05/09 13:35:52;;;;;;;7.43;1.77;;;;;;;;;;5075844;28;20461;-84
2022/05/09 13:38:18;;;;;;;7.43;1.77;;;;;;;;;;5066457;28;20488;-85
2022/05/09 13:40:45;;;;;;;5.97;1.83;;;;;;;;;;5080166;28;20529;-83
2022/05/09 13:43:14;;;;;;;9.50;1.80;;;;;;;;;;5078012;28;20500;-83
2022/05/09 13:45:41;;;;;;;6.95;2.05;;;;;;;;;;5076536;28;20032;-84
2022/05/09 13:48:08;;;;;;;7.43;1.80;;;;;;;;;;5076974;28;20430;-83
2022/05/09 13:50:36;;;;;;;7.97;1.92;;;;;;;;;;5056258;28;20079;-84
2022/05/09 13:53:06;;;;;;;6.55;2.10;;;;;;;;;;5050574;28;20052;-84
2022/05/09 13:55:36;;;;;;;6.43;2.08;;;;;;;;;;5081413;28;20207;-83
2022/05/09 13:58:02;;;;;;;5.97;2.13;;;;;;;;;;5066346;28;20450;-83
2022/05/09 14:00:42;;;;;;;5.75;1.90;;;;;;;;;;5079442;28;20127;-86
2022/05/09 14:03:29;;;;;;;5.97;2.30;;;;;;;;;;5085873;28;20040;-83
2022/05/09 14:05:57;;;;;;;7.43;2.10;;;;;;;;;;5080199;28;20075;-84
2022/05/09 14:08:24;;;;;;;10.10;2.15;;;;;;;;;;5074558;28;20036;-85
2022/05/09 14:10:59;;;;;;;7.57;2.20;;;;;;;;;;5070010;28;20494;-87
2022/05/09 14:13:44;;;;;;;8.23;2.50;;;;;;;;;;5075520;28;20032;-85
2022/05/09 14:16:16;;;;;;;8.88;1.85;;;;;;;;;;5075265;28;20087;-87
2022/05/09 14:18:43;;;;;;;6.43;2.05;;;;;;;;;;5072987;28;20106;-86
2022/05/09 14:21:14;;;;;;;5.53;1.80;;;;;;;;;;5074992;28;20240;-86
2022/05/09 14:23:45;;;;;;;5.95;1.88;;;;;;;;;;5070744;28;20044;-85
2022/05/09 14:32:06;;;;;;;8.98;1.88;;;;;;;;;;5090350;28;20102;-85
2022/05/09 14:34:32;;;;;;;7.95;1.75;;;;;;;;;;5078592;28;20052;-87
2022/05/09 14:37:08;;;;;;;7.05;2.15;;;;;;;;;;5073461;28;20454;-87
2022/05/09 14:39:39;;;;;;;8.13;2.10;;;;;;;;;;5075407;28;20047;-82
2022/05/09 14:42:10;;;;;;;6.43;1.70;;;;;;;;;;5059901;28;20443;-83
2022/05/09 14:44:36;;;;;;;6.57;2.35;;;;;;;;;;5078120;28;20040;-82
2022/05/09 14:47:13;;;;;;;8.35;2.33;;;;;;;;;;5077279;28;20090;-82
2022/05/09 14:50:06;;;;;;;9.18;2.38;;;;;;;;;;5082347;28;20477;-82
2022/05/09 14:52:36;;;;;;;7.57;2.10;;;;;;;;;;5073619;28;20047;-82
2022/05/09 14:57:54;;;;;;;10.60;2.42;;;;;;;;;;5089107;28;20037;-83
2022/05/09 15:00:23;;;;;;;5.45;2.05;;;;;;;;;;5070391;28;20468;-84
2022/05/09 15:03:00;;;;;;;7.07;2.38;;;;;;;;;;5079218;28;20434;-84
2022/05/09 15:05:26;;;;;;;5.25;2.00;;;;;;;;;;5074235;28;20037;-84
2022/05/09 15:07:56;;;;;;;5.43;2.00;;;;;;;;;;5070758;28;20040;-83
2022/05/09 15:10:26;;;;;;;9.77;2.35;;;;;;;;;;5068498;28;20033;-83
2022/05/09 15:12:52;;;;;;;7.47;2.35;;;;;;;;;;5076015;28;20102;-82